sensor_id;sensor_type;location;lat;lon;timestamp;pressure;altitude;pressure_sealevel;temperature;humidity
48810;BME280;40070;47.322;18.784;2022-11-20T00:01:51;999.47;;;4.07;69.03
48810;BME280;40070;47.322;18.784;2022-11-20T00:03:54;999.49;;;3.96;69.00
48810;BME280;40070;47.322;18.784;2022-11-20T00:06:03;999.56;;;3.73;69.21
48810;BME280;40070;47.322;18.784;2022-11-20T00:08:06;999.57;;;3.62;69.34
48810;BME280;40070;47.322;18.784;2022-11-20T00:10:09;999.54;;;3.96;68.91
48810;BME280;40070;47.322;18.784;2022-11-20T00:12:11;999.55;;;4.25;68.43
48810;BME280;40070;47.322;18.784;2022-11-20T00:14:13;999.65;;;4.46;67.55
48810;BME280;40070;47.322;18.784;2022-11-20T00:16:17;999.76;;;4.10;68.10
48810;BME280;40070;47.322;18.784;2022-11-20T00:18:20;999.73;;;3.91;69.28
48810;BME280;40070;47.322;18.784;2022-11-20T00:20:22;999.66;;;3.84;69.78
48810;BME280;40070;47.322;18.784;2022-11-20T00:22:25;999.68;;;3.72;70.03
48810;BME280;40070;47.322;18.784;2022-11-20T00:24:27;999.77;;;3.85;69.45
48810;BME280;40070;47.322;18.784;2022-11-20T00:26:29;999.88;;;4.08;69.02
48810;BME280;40070;47.322;18.784;2022-11-20T00:28:32;1000.00;;;4.05;69.22
48810;BME280;40070;47.322;18.784;2022-11-20T00:30:34;1000.00;;;3.99;69.06
48810;BME280;40070;47.322;18.784;2022-11-20T00:32:36;999.91;;;4.07;69.08
48810;BME280;40070;47.322;18.784;2022-11-20T00:34:39;999.81;;;3.71;70.17
48810;BME280;40070;47.322;18.784;2022-11-20T00:36:41;999.73;;;3.82;70.65
48810;BME280;40070;47.322;18.784;2022-11-20T00:38:44;999.73;;;3.62;70.78
48810;BME280;40070;47.322;18.784;2022-11-20T00:40:46;999.72;;;3.70;70.44
48810;BME280;40070;47.322;18.784;2022-11-20T00:42:56;999.63;;;3.85;69.82
48810;BME280;40070;47.322;18.784;2022-11-20T00:44:58;999.59;;;4.10;69.48
48810;BME280;40070;47.322;18.784;2022-11-20T00:47:00;999.60;;;4.09;68.96
48810;BME280;40070;47.322;18.784;2022-11-20T00:49:03;999.66;;;4.63;67.63
48810;BME280;40070;47.322;18.784;2022-11-20T00:51:05;999.65;;;4.40;67.09
48810;BME280;40070;47.322;18.784;2022-11-20T00:53:08;999.60;;;4.50;66.42
48810;BME280;40070;47.322;18.784;2022-11-20T00:55:10;999.54;;;4.58;66.45
48810;BME280;40070;47.322;18.784;2022-11-20T00:57:12;999.45;;;4.34;66.41
48810;BME280;40070;47.322;18.784;2022-11-20T00:59:15;999.52;;;3.66;68.58
48810;BME280;40070;47.322;18.784;2022-11-20T01:01:21;999.54;;;3.62;69.32
48810;BME280;40070;47.322;18.784;2022-11-20T01:03:23;999.55;;;3.58;70.13
48810;BME280;40070;47.322;18.784;2022-11-20T01:05:25;999.69;;;3.53;70.20
48810;BME280;40070;47.322;18.784;2022-11-20T01:07:28;999.73;;;3.66;69.11
48810;BME280;40070;47.322;18.784;2022-11-20T01:09:30;999.72;;;3.92;69.12
48810;BME280;40070;47.322;18.784;2022-11-20T01:11:36;999.78;;;3.40;69.70
48810;BME280;40070;47.322;18.784;2022-11-20T01:13:39;999.71;;;3.26;70.29
48810;BME280;40070;47.322;18.784;2022-11-20T01:15:42;999.76;;;3.14;71.12
48810;BME280;40070;47.322;18.784;2022-11-20T01:17:44;999.84;;;3.12;71.52
48810;BME280;40070;47.322;18.784;2022-11-20T01:19:48;1000.00;;;3.09;71.44
48810;BME280;40070;47.322;18.784;2022-11-20T01:21:51;1000.02;;;3.31;70.27
48810;BME280;40070;47.322;18.784;2022-11-20T01:23:54;999.93;;;3.46;69.93
48810;BME280;40070;47.322;18.784;2022-11-20T01:25:58;999.87;;;3.42;69.74
48810;BME280;40070;47.322;18.784;2022-11-20T01:28:01;999.86;;;3.12;70.01
48810;BME280;40070;47.322;18.784;2022-11-20T01:30:04;999.85;;;3.08;70.33
48810;BME280;40070;47.322;18.784;2022-11-20T01:32:06;999.81;;;3.12;70.18
48810;BME280;40070;47.322;18.784;2022-11-20T01:34:10;999.82;;;3.10;70.17
48810;BME280;40070;47.322;18.784;2022-11-20T01:36:13;999.90;;;3.03;71.10
48810;BME280;40070;47.322;18.784;2022-11-20T01:38:16;999.76;;;3.32;70.08
48810;BME280;40070;47.322;18.784;2022-11-20T01:40:18;999.76;;;3.20;69.86
48810;BME280;40070;47.322;18.784;2022-11-20T01:42:21;999.72;;;2.95;70.60
48810;BME280;40070;47.322;18.784;2022-11-20T01:46:52;999.73;;;3.10;70.41
48810;BME280;40070;47.322;18.784;2022-11-20T01:49:20;999.71;;;3.24;69.93
48810;BME280;40070;47.322;18.784;2022-11-20T01:51:29;999.75;;;3.40;69.16
48810;BME280;40070;47.322;18.784;2022-11-20T01:53:33;999.73;;;3.63;68.77
48810;BME280;40070;47.322;18.784;2022-11-20T01:55:39;999.73;;;3.78;68.20
48810;BME280;40070;47.322;18.784;2022-11-20T01:57:43;999.71;;;3.66;68.69
48810;BME280;40070;47.322;18.784;2022-11-20T01:59:51;999.72;;;3.60;67.87
48810;BME280;40070;47.322;18.784;2022-11-20T02:01:55;999.80;;;3.73;68.13
48810;BME280;40070;47.322;18.784;2022-11-20T02:03:57;999.77;;;4.09;67.56
48810;BME280;40070;47.322;18.784;2022-11-20T02:06:08;999.80;;;3.86;67.54
48810;BME280;40070;47.322;18.784;2022-11-20T02:08:12;999.69;;;3.81;67.63
48810;BME280;40070;47.322;18.784;2022-11-20T02:10:14;999.68;;;3.75;68.20
48810;BME280;40070;47.322;18.784;2022-11-20T02:12:17;999.64;;;4.16;67.53
48810;BME280;40070;47.322;18.784;2022-11-20T02:14:19;999.69;;;4.29;66.98
48810;BME280;40070;47.322;18.784;2022-11-20T02:16:24;999.76;;;3.92;67.50
48810;BME280;40070;47.322;18.784;2022-11-20T02:18:27;999.69;;;4.04;67.28
48810;BME280;40070;47.322;18.784;2022-11-20T02:20:30;999.61;;;4.30;67.20
48810;BME280;40070;47.322;18.784;2022-11-20T02:22:37;999.53;;;4.64;66.15
48810;BME280;40070;47.322;18.784;2022-11-20T02:24:44;999.49;;;4.45;65.97
48810;BME280;40070;47.322;18.784;2022-11-20T02:26:54;999.48;;;4.80;65.62
48810;BME280;40070;47.322;18.784;2022-11-20T02:28:58;999.51;;;4.69;65.32
48810;BME280;40070;47.322;18.784;2022-11-20T02:31:02;999.57;;;4.63;65.40
48810;BME280;40070;47.322;18.784;2022-11-20T02:33:04;999.56;;;4.76;65.27
48810;BME280;40070;47.322;18.784;2022-11-20T02:35:08;999.60;;;4.86;65.32
48810;BME280;40070;47.322;18.784;2022-11-20T02:37:10;999.62;;;4.99;65.22
48810;BME280;40070;47.322;18.784;2022-11-20T02:39:13;999.60;;;4.96;65.15
48810;BME280;40070;47.322;18.784;2022-11-20T02:41:17;999.60;;;5.04;65.00
48810;BME280;40070;47.322;18.784;2022-11-20T02:43:19;999.64;;;5.19;64.72
48810;BME280;40070;47.322;18.784;2022-11-20T02:45:22;999.63;;;5.10;64.97
48810;BME280;40070;47.322;18.784;2022-11-20T02:47:24;999.63;;;4.99;65.36
48810;BME280;40070;47.322;18.784;2022-11-20T02:49:26;999.63;;;4.73;65.47
48810;BME280;40070;47.322;18.784;2022-11-20T02:51:29;999.66;;;4.82;65.79
48810;BME280;40070;47.322;18.784;2022-11-20T02:53:31;999.61;;;4.99;65.51
48810;BME280;40070;47.322;18.784;2022-11-20T02:55:34;999.46;;;4.97;65.59
48810;BME280;40070;47.322;18.784;2022-11-20T02:57:37;999.38;;;5.06;65.40
48810;BME280;40070;47.322;18.784;2022-11-20T02:59:39;999.29;;;5.07;65.35
48810;BME280;40070;47.322;18.784;2022-11-20T03:01:41;999.30;;;5.08;64.90
48810;BME280;40070;47.322;18.784;2022-11-20T03:03:44;999.35;;;5.11;65.05
48810;BME280;40070;47.322;18.784;2022-11-20T03:05:46;999.38;;;4.79;65.41
48810;BME280;40070;47.322;18.784;2022-11-20T03:07:49;999.37;;;4.73;66.05
48810;BME280;40070;47.322;18.784;2022-11-20T03:09:51;999.37;;;4.82;65.88
48810;BME280;40070;47.322;18.784;2022-11-20T03:11:53;999.37;;;4.95;65.63
48810;BME280;40070;47.322;18.784;2022-11-20T03:13:56;999.36;;;4.95;65.40
48810;BME280;40070;47.322;18.784;2022-11-20T03:15:58;999.44;;;4.92;65.38
48810;BME280;40070;47.322;18.784;2022-11-20T03:18:00;999.45;;;4.97;65.48
48810;BME280;40070;47.322;18.784;2022-11-20T03:20:03;999.52;;;4.84;65.90
48810;BME280;40070;47.322;18.784;2022-11-20T03:22:05;999.56;;;4.93;65.99
48810;BME280;40070;47.322;18.784;2022-11-20T03:24:08;999.58;;;4.74;66.69
48810;BME280;40070;47.322;18.784;2022-11-20T03:26:17;999.61;;;4.86;65.90
48810;BME280;40070;47.322;18.784;2022-11-20T03:28:19;999.51;;;4.75;66.31
48810;BME280;40070;47.322;18.784;2022-11-20T03:30:22;999.56;;;4.99;65.54
48810;BME280;40070;47.322;18.784;2022-11-20T03:32:24;999.59;;;5.00;65.48
48810;BME280;40070;47.322;18.784;2022-11-20T03:34:27;999.56;;;4.97;65.86
48810;BME280;40070;47.322;18.784;2022-11-20T03:36:29;999.52;;;5.00;65.84
48810;BME280;40070;47.322;18.784;2022-11-20T03:38:32;999.53;;;4.91;65.24
48810;BME280;40070;47.322;18.784;2022-11-20T03:40:34;999.51;;;4.88;65.19
48810;BME280;40070;47.322;18.784;2022-11-20T03:42:37;999.50;;;5.12;64.88
48810;BME280;40070;47.322;18.784;2022-11-20T03:44:39;999.48;;;5.22;64.56
48810;BME280;40070;47.322;18.784;2022-11-20T03:46:41;999.48;;;4.94;65.71
48810;BME280;40070;47.322;18.784;2022-11-20T03:48:44;999.45;;;4.93;66.00
48810;BME280;40070;47.322;18.784;2022-11-20T03:50:46;999.42;;;5.13;65.46
48810;BME280;40070;47.322;18.784;2022-11-20T03:52:48;999.38;;;4.86;66.03
48810;BME280;40070;47.322;18.784;2022-11-20T03:54:51;999.41;;;4.49;67.37
48810;BME280;40070;47.322;18.784;2022-11-20T03:56:53;999.32;;;4.09;68.87
48810;BME280;40070;47.322;18.784;2022-11-20T03:58:55;999.28;;;3.68;70.51
48810;BME280;40070;47.322;18.784;2022-11-20T04:00:58;999.22;;;3.28;72.31
48810;BME280;40070;47.322;18.784;2022-11-20T04:03:05;999.16;;;3.26;72.50
48810;BME280;40070;47.322;18.784;2022-11-20T04:05:08;999.11;;;3.27;72.60
48810;BME280;40070;47.322;18.784;2022-11-20T04:07:10;999.04;;;3.52;71.85
48810;BME280;40070;47.322;18.784;2022-11-20T04:09:12;999.01;;;3.89;70.91
48810;BME280;40070;47.322;18.784;2022-11-20T04:11:19;998.94;;;4.04;70.45
48810;BME280;40070;47.322;18.784;2022-11-20T04:13:22;998.91;;;4.14;69.74
48810;BME280;40070;47.322;18.784;2022-11-20T04:15:24;998.96;;;4.03;70.02
48810;BME280;40070;47.322;18.784;2022-11-20T04:17:26;999.02;;;3.77;70.68
48810;BME280;40070;47.322;18.784;2022-11-20T04:19:29;999.10;;;3.79;70.14
48810;BME280;40070;47.322;18.784;2022-11-20T04:21:31;999.18;;;3.78;70.52
48810;BME280;40070;47.322;18.784;2022-11-20T04:23:34;999.15;;;3.86;70.53
48810;BME280;40070;47.322;18.784;2022-11-20T04:25:36;999.11;;;3.75;70.92
48810;BME280;40070;47.322;18.784;2022-11-20T04:27:39;999.05;;;3.52;71.75
48810;BME280;40070;47.322;18.784;2022-11-20T04:29:41;998.98;;;3.52;72.26
48810;BME280;40070;47.322;18.784;2022-11-20T04:31:43;998.95;;;3.57;72.14
48810;BME280;40070;47.322;18.784;2022-11-20T04:33:46;998.91;;;3.83;71.38
48810;BME280;40070;47.322;18.784;2022-11-20T04:35:48;998.88;;;3.55;72.35
48810;BME280;40070;47.322;18.784;2022-11-20T04:37:51;998.94;;;3.71;72.44
48810;BME280;40070;47.322;18.784;2022-11-20T04:39:53;999.01;;;3.97;71.63
48810;BME280;40070;47.322;18.784;2022-11-20T04:41:56;999.03;;;4.00;71.62
48810;BME280;40070;47.322;18.784;2022-11-20T04:43:59;999.03;;;4.23;70.71
48810;BME280;40070;47.322;18.784;2022-11-20T04:46:01;999.05;;;4.34;70.14
48810;BME280;40070;47.322;18.784;2022-11-20T04:48:04;999.06;;;4.43;70.19
48810;BME280;40070;47.322;18.784;2022-11-20T04:50:07;999.07;;;4.49;70.01
48810;BME280;40070;47.322;18.784;2022-11-20T04:52:09;999.00;;;4.57;69.62
48810;BME280;40070;47.322;18.784;2022-11-20T04:54:11;998.83;;;4.55;69.38
48810;BME280;40070;47.322;18.784;2022-11-20T04:56:14;998.82;;;4.48;69.77
48810;BME280;40070;47.322;18.784;2022-11-20T04:58:16;998.93;;;4.58;70.02
48810;BME280;40070;47.322;18.784;2022-11-20T05:00:19;998.99;;;4.89;68.83
48810;BME280;40070;47.322;18.784;2022-11-20T05:02:21;999.00;;;4.93;68.74
48810;BME280;40070;47.322;18.784;2022-11-20T05:04:24;998.88;;;4.96;68.59
48810;BME280;40070;47.322;18.784;2022-11-20T05:06:26;998.88;;;5.06;68.60
48810;BME280;40070;47.322;18.784;2022-11-20T05:08:29;998.87;;;5.12;68.18
48810;BME280;40070;47.322;18.784;2022-11-20T05:10:31;998.95;;;5.20;67.99
48810;BME280;40070;47.322;18.784;2022-11-20T05:12:34;998.91;;;5.24;67.55
48810;BME280;40070;47.322;18.784;2022-11-20T05:14:36;998.88;;;5.20;67.67
48810;BME280;40070;47.322;18.784;2022-11-20T05:16:38;998.82;;;4.94;68.04
48810;BME280;40070;47.322;18.784;2022-11-20T05:18:41;998.86;;;4.44;69.99
48810;BME280;40070;47.322;18.784;2022-11-20T05:20:43;998.91;;;4.08;71.77
48810;BME280;40070;47.322;18.784;2022-11-20T05:22:46;998.87;;;3.96;72.28
48810;BME280;40070;47.322;18.784;2022-11-20T05:24:48;998.87;;;4.21;71.76
48810;BME280;40070;47.322;18.784;2022-11-20T05:26:50;998.82;;;4.57;70.68
48810;BME280;40070;47.322;18.784;2022-11-20T05:28:53;998.77;;;4.74;70.18
48810;BME280;40070;47.322;18.784;2022-11-20T05:30:55;998.66;;;4.87;69.50
48810;BME280;40070;47.322;18.784;2022-11-20T05:32:57;998.64;;;4.53;69.82
48810;BME280;40070;47.322;18.784;2022-11-20T05:35:00;998.66;;;3.91;72.49
48810;BME280;40070;47.322;18.784;2022-11-20T05:37:02;998.58;;;3.83;72.65
48810;BME280;40070;47.322;18.784;2022-11-20T05:39:04;998.58;;;3.76;73.16
48810;BME280;40070;47.322;18.784;2022-11-20T05:41:08;998.70;;;3.93;72.71
48810;BME280;40070;47.322;18.784;2022-11-20T05:43:10;998.84;;;4.44;71.24
48810;BME280;40070;47.322;18.784;2022-11-20T05:45:13;998.92;;;4.82;69.61
48810;BME280;40070;47.322;18.784;2022-11-20T05:47:15;998.89;;;4.65;69.63
48810;BME280;40070;47.322;18.784;2022-11-20T05:49:17;998.82;;;4.12;71.20
48810;BME280;40070;47.322;18.784;2022-11-20T05:51:20;998.86;;;4.11;71.91
48810;BME280;40070;47.322;18.784;2022-11-20T05:53:22;998.95;;;3.88;72.99
48810;BME280;40070;47.322;18.784;2022-11-20T05:55:24;998.95;;;3.81;73.16
48810;BME280;40070;47.322;18.784;2022-11-20T05:57:27;998.85;;;3.99;72.94
48810;BME280;40070;47.322;18.784;2022-11-20T05:59:29;998.81;;;3.90;72.29
48810;BME280;40070;47.322;18.784;2022-11-20T06:01:31;998.93;;;3.86;72.57
48810;BME280;40070;47.322;18.784;2022-11-20T06:03:34;998.96;;;3.98;72.04
48810;BME280;40070;47.322;18.784;2022-11-20T06:05:37;998.91;;;4.12;71.82
48810;BME280;40070;47.322;18.784;2022-11-20T06:07:39;998.91;;;4.42;70.95
48810;BME280;40070;47.322;18.784;2022-11-20T06:09:41;998.97;;;4.17;71.17
48810;BME280;40070;47.322;18.784;2022-11-20T06:11:44;998.95;;;4.08;72.21
48810;BME280;40070;47.322;18.784;2022-11-20T06:13:46;998.88;;;4.04;72.45
48810;BME280;40070;47.322;18.784;2022-11-20T06:15:52;998.89;;;3.77;73.19
48810;BME280;40070;47.322;18.784;2022-11-20T06:17:55;998.91;;;3.51;74.43
48810;BME280;40070;47.322;18.784;2022-11-20T06:19:57;998.97;;;3.57;74.08
48810;BME280;40070;47.322;18.784;2022-11-20T06:21:59;999.03;;;3.72;74.17
48810;BME280;40070;47.322;18.784;2022-11-20T06:24:02;999.12;;;4.14;72.73
48810;BME280;40070;47.322;18.784;2022-11-20T06:26:05;999.21;;;3.94;73.06
48810;BME280;40070;47.322;18.784;2022-11-20T06:28:08;999.23;;;3.77;73.68
48810;BME280;40070;47.322;18.784;2022-11-20T06:30:11;999.20;;;3.78;73.92
48810;BME280;40070;47.322;18.784;2022-11-20T06:32:14;999.23;;;4.20;73.40
48810;BME280;40070;47.322;18.784;2022-11-20T06:34:16;999.31;;;4.48;72.19
48810;BME280;40070;47.322;18.784;2022-11-20T06:36:19;999.36;;;4.70;71.28
48810;BME280;40070;47.322;18.784;2022-11-20T06:38:23;999.35;;;4.56;71.24
48810;BME280;40070;47.322;18.784;2022-11-20T06:40:25;999.34;;;4.26;72.29
48810;BME280;40070;47.322;18.784;2022-11-20T06:42:28;999.37;;;4.17;72.62
48810;BME280;40070;47.322;18.784;2022-11-20T06:44:30;999.37;;;4.29;72.32
48810;BME280;40070;47.322;18.784;2022-11-20T06:46:32;999.39;;;4.46;71.66
48810;BME280;40070;47.322;18.784;2022-11-20T06:48:35;999.33;;;4.49;71.75
48810;BME280;40070;47.322;18.784;2022-11-20T06:50:37;999.27;;;4.43;71.35
48810;BME280;40070;47.322;18.784;2022-11-20T06:52:39;999.28;;;4.37;71.59
48810;BME280;40070;47.322;18.784;2022-11-20T06:54:42;999.28;;;4.32;71.92
48810;BME280;40070;47.322;18.784;2022-11-20T06:56:47;999.34;;;4.46;71.19
48810;BME280;40070;47.322;18.784;2022-11-20T06:58:50;999.36;;;4.48;71.29
48810;BME280;40070;47.322;18.784;2022-11-20T07:00:52;999.36;;;4.80;70.38
48810;BME280;40070;47.322;18.784;2022-11-20T07:02:54;999.41;;;5.02;69.89
48810;BME280;40070;47.322;18.784;2022-11-20T07:04:57;999.41;;;4.96;69.56
48810;BME280;40070;47.322;18.784;2022-11-20T07:06:59;999.40;;;5.07;69.61
48810;BME280;40070;47.322;18.784;2022-11-20T07:09:01;999.41;;;4.73;69.81
48810;BME280;40070;47.322;18.784;2022-11-20T07:11:05;999.42;;;4.75;70.21
48810;BME280;40070;47.322;18.784;2022-11-20T07:13:08;999.44;;;4.48;71.10
48810;BME280;40070;47.322;18.784;2022-11-20T07:15:10;999.40;;;4.68;70.56
48810;BME280;40070;47.322;18.784;2022-11-20T07:17:12;999.40;;;4.75;70.48
48810;BME280;40070;47.322;18.784;2022-11-20T07:19:15;999.39;;;4.67;70.65
48810;BME280;40070;47.322;18.784;2022-11-20T07:21:17;999.39;;;4.59;71.25
48810;BME280;40070;47.322;18.784;2022-11-20T07:23:19;999.39;;;4.06;72.92
48810;BME280;40070;47.322;18.784;2022-11-20T07:25:22;999.37;;;4.01;73.64
48810;BME280;40070;47.322;18.784;2022-11-20T07:27:25;999.37;;;4.21;73.58
48810;BME280;40070;47.322;18.784;2022-11-20T07:29:27;999.42;;;4.05;74.35
48810;BME280;40070;47.322;18.784;2022-11-20T07:31:29;999.41;;;4.26;74.07
48810;BME280;40070;47.322;18.784;2022-11-20T07:33:32;999.37;;;4.20;74.27
48810;BME280;40070;47.322;18.784;2022-11-20T07:35:34;999.42;;;4.38;73.93
48810;BME280;40070;47.322;18.784;2022-11-20T07:37:36;999.43;;;4.21;73.85
48810;BME280;40070;47.322;18.784;2022-11-20T07:39:39;999.47;;;4.28;74.52
48810;BME280;40070;47.322;18.784;2022-11-20T07:41:41;999.47;;;4.53;73.60
48810;BME280;40070;47.322;18.784;2022-11-20T07:43:44;999.52;;;4.36;74.35
48810;BME280;40070;47.322;18.784;2022-11-20T07:45:46;999.51;;;4.23;74.52
48810;BME280;40070;47.322;18.784;2022-11-20T07:47:48;999.48;;;4.23;74.70
48810;BME280;40070;47.322;18.784;2022-11-20T07:49:51;999.41;;;4.34;74.72
48810;BME280;40070;47.322;18.784;2022-11-20T07:51:53;999.39;;;4.59;74.49
48810;BME280;40070;47.322;18.784;2022-11-20T07:53:55;999.40;;;4.65;73.46
48810;BME280;40070;47.322;18.784;2022-11-20T07:56:01;999.38;;;4.89;73.22
48810;BME280;40070;47.322;18.784;2022-11-20T07:58:03;999.39;;;4.83;73.45
48810;BME280;40070;47.322;18.784;2022-11-20T08:00:07;999.25;;;4.64;74.06
48810;BME280;40070;47.322;18.784;2022-11-20T08:02:10;999.22;;;5.18;73.03
48810;BME280;40070;47.322;18.784;2022-11-20T08:04:12;999.20;;;4.79;72.99
48810;BME280;40070;47.322;18.784;2022-11-20T08:06:15;999.18;;;4.97;73.34
48810;BME280;40070;47.322;18.784;2022-11-20T08:08:17;999.20;;;5.12;73.12
48810;BME280;40070;47.322;18.784;2022-11-20T08:10:19;999.20;;;5.15;73.19
48810;BME280;40070;47.322;18.784;2022-11-20T08:12:22;999.23;;;5.04;73.10
48810;BME280;40070;47.322;18.784;2022-11-20T08:14:24;999.21;;;5.00;73.48
48810;BME280;40070;47.322;18.784;2022-11-20T08:16:26;999.17;;;4.87;74.58
48810;BME280;40070;47.322;18.784;2022-11-20T08:18:29;999.11;;;4.84;74.24
48810;BME280;40070;47.322;18.784;2022-11-20T08:20:31;999.23;;;4.83;73.96
48810;BME280;40070;47.322;18.784;2022-11-20T08:22:34;999.29;;;4.69;74.08
48810;BME280;40070;47.322;18.784;2022-11-20T08:24:36;999.34;;;4.68;74.37
48810;BME280;40070;47.322;18.784;2022-11-20T08:26:39;999.36;;;4.75;73.60
48810;BME280;40070;47.322;18.784;2022-11-20T08:28:41;999.37;;;4.80;74.02
48810;BME280;40070;47.322;18.784;2022-11-20T08:30:44;999.42;;;4.55;74.91
48810;BME280;40070;47.322;18.784;2022-11-20T08:32:46;999.44;;;4.40;75.05
48810;BME280;40070;47.322;18.784;2022-11-20T08:34:48;999.49;;;4.39;75.03
48810;BME280;40070;47.322;18.784;2022-11-20T08:36:51;999.46;;;4.51;75.28
48810;BME280;40070;47.322;18.784;2022-11-20T08:38:54;999.52;;;4.64;74.94
48810;BME280;40070;47.322;18.784;2022-11-20T08:40:57;999.60;;;4.61;75.07
48810;BME280;40070;47.322;18.784;2022-11-20T08:43:00;999.69;;;4.99;74.45
48810;BME280;40070;47.322;18.784;2022-11-20T08:45:02;999.74;;;5.06;73.40
48810;BME280;40070;47.322;18.784;2022-11-20T08:47:05;999.72;;;5.14;72.88
48810;BME280;40070;47.322;18.784;2022-11-20T08:49:08;999.71;;;5.50;72.22
48810;BME280;40070;47.322;18.784;2022-11-20T08:51:11;999.72;;;5.71;72.14
48810;BME280;40070;47.322;18.784;2022-11-20T08:53:14;999.68;;;6.12;71.15
48810;BME280;40070;47.322;18.784;2022-11-20T08:55:16;999.70;;;6.13;70.40
48810;BME280;40070;47.322;18.784;2022-11-20T08:57:19;999.74;;;5.89;70.97
48810;BME280;40070;47.322;18.784;2022-11-20T08:59:21;999.75;;;5.91;70.70
48810;BME280;40070;47.322;18.784;2022-11-20T09:01:23;999.75;;;5.91;71.08
48810;BME280;40070;47.322;18.784;2022-11-20T09:03:26;999.81;;;5.93;70.87
48810;BME280;40070;47.322;18.784;2022-11-20T09:05:28;999.83;;;6.05;70.89
48810;BME280;40070;47.322;18.784;2022-11-20T09:07:31;999.78;;;5.95;70.46
48810;BME280;40070;47.322;18.784;2022-11-20T09:09:33;999.76;;;5.92;70.58
48810;BME280;40070;47.322;18.784;2022-11-20T09:11:35;999.73;;;5.84;70.28
48810;BME280;40070;47.322;18.784;2022-11-20T09:13:38;999.75;;;5.59;71.53
48810;BME280;40070;47.322;18.784;2022-11-20T09:15:40;999.74;;;5.66;71.82
48810;BME280;40070;47.322;18.784;2022-11-20T09:17:49;999.74;;;5.65;72.50
48810;BME280;40070;47.322;18.784;2022-11-20T09:19:52;999.73;;;5.87;71.85
48810;BME280;40070;47.322;18.784;2022-11-20T09:21:54;999.72;;;5.69;71.96
48810;BME280;40070;47.322;18.784;2022-11-20T09:23:56;999.74;;;5.59;72.11
48810;BME280;40070;47.322;18.784;2022-11-20T09:26:01;999.76;;;5.35;73.27
48810;BME280;40070;47.322;18.784;2022-11-20T09:28:04;999.77;;;5.33;73.04
48810;BME280;40070;47.322;18.784;2022-11-20T09:30:07;999.79;;;5.17;73.15
48810;BME280;40070;47.322;18.784;2022-11-20T09:32:09;999.78;;;5.48;72.58
48810;BME280;40070;47.322;18.784;2022-11-20T09:34:11;999.76;;;5.47;71.93
48810;BME280;40070;47.322;18.784;2022-11-20T09:36:14;999.69;;;5.57;72.46
48810;BME280;40070;47.322;18.784;2022-11-20T09:38:16;999.72;;;5.88;72.07
48810;BME280;40070;47.322;18.784;2022-11-20T09:40:20;999.67;;;5.77;72.30
48810;BME280;40070;47.322;18.784;2022-11-20T09:42:32;999.69;;;5.77;72.16
48810;BME280;40070;47.322;18.784;2022-11-20T09:44:50;999.72;;;5.86;72.41
48810;BME280;40070;47.322;18.784;2022-11-20T09:47:02;999.68;;;5.77;71.95
48810;BME280;40070;47.322;18.784;2022-11-20T09:51:36;999.69;;;6.07;72.52
48810;BME280;40070;47.322;18.784;2022-11-20T09:53:46;999.72;;;6.04;72.27
48810;BME280;40070;47.322;18.784;2022-11-20T09:55:53;999.70;;;5.73;72.82
48810;BME280;40070;47.322;18.784;2022-11-20T09:57:56;999.65;;;5.64;72.98
48810;BME280;40070;47.322;18.784;2022-11-20T10:00:00;999.58;;;5.43;73.35
48810;BME280;40070;47.322;18.784;2022-11-20T10:02:08;999.56;;;5.63;73.58
48810;BME280;40070;47.322;18.784;2022-11-20T10:04:17;999.50;;;5.51;73.99
48810;BME280;40070;47.322;18.784;2022-11-20T10:06:21;999.41;;;5.53;74.15
48810;BME280;40070;47.322;18.784;2022-11-20T10:08:29;999.36;;;5.46;74.35
48810;BME280;40070;47.322;18.784;2022-11-20T10:13:20;999.24;;;5.76;73.36
48810;BME280;40070;47.322;18.784;2022-11-20T10:15:19;999.23;;;5.73;73.30
48810;BME280;40070;47.322;18.784;2022-11-20T10:17:39;999.22;;;5.82;72.56
48810;BME280;40070;47.322;18.784;2022-11-20T10:24:38;999.23;;;5.86;73.35
48810;BME280;40070;47.322;18.784;2022-11-20T10:29:11;999.18;;;6.05;73.11
48810;BME280;40070;47.322;18.784;2022-11-20T10:31:23;999.18;;;5.97;73.15
48810;BME280;40070;47.322;18.784;2022-11-20T10:33:29;999.12;;;6.15;73.28
48810;BME280;40070;47.322;18.784;2022-11-20T10:37:53;999.09;;;6.14;72.80
48810;BME280;40070;47.322;18.784;2022-11-20T10:40:14;999.07;;;6.29;73.48
48810;BME280;40070;47.322;18.784;2022-11-20T10:42:20;999.02;;;6.37;73.23
48810;BME280;40070;47.322;18.784;2022-11-20T10:44:27;998.99;;;6.76;72.02
48810;BME280;40070;47.322;18.784;2022-11-20T10:46:35;998.98;;;6.70;71.59
48810;BME280;40070;47.322;18.784;2022-11-20T10:48:39;999.09;;;6.49;72.38
48810;BME280;40070;47.322;18.784;2022-11-20T10:50:49;999.17;;;6.45;72.76
48810;BME280;40070;47.322;18.784;2022-11-20T10:52:56;999.18;;;6.68;72.66
48810;BME280;40070;47.322;18.784;2022-11-20T10:55:06;999.26;;;6.81;71.98
48810;BME280;40070;47.322;18.784;2022-11-20T11:02:00;999.44;;;7.01;71.05
48810;BME280;40070;47.322;18.784;2022-11-20T11:04:02;999.40;;;7.21;70.46
48810;BME280;40070;47.322;18.784;2022-11-20T11:06:17;999.44;;;7.06;70.64
48810;BME280;40070;47.322;18.784;2022-11-20T11:08:23;999.47;;;7.24;70.63
48810;BME280;40070;47.322;18.784;2022-11-20T11:12:46;999.37;;;7.21;70.83
48810;BME280;40070;47.322;18.784;2022-11-20T11:14:50;999.34;;;7.33;70.34
48810;BME280;40070;47.322;18.784;2022-11-20T11:16:54;999.38;;;7.48;70.17
48810;BME280;40070;47.322;18.784;2022-11-20T11:19:03;999.37;;;7.50;70.08
48810;BME280;40070;47.322;18.784;2022-11-20T11:21:06;999.33;;;7.35;69.89
48810;BME280;40070;47.322;18.784;2022-11-20T11:23:10;999.36;;;7.11;70.53
48810;BME280;40070;47.322;18.784;2022-11-20T11:25:27;999.39;;;7.00;70.44
48810;BME280;40070;47.322;18.784;2022-11-20T11:27:29;999.40;;;6.90;70.87
48810;BME280;40070;47.322;18.784;2022-11-20T11:29:32;999.40;;;6.85;71.14
48810;BME280;40070;47.322;18.784;2022-11-20T11:31:34;999.37;;;6.90;71.81
48810;BME280;40070;47.322;18.784;2022-11-20T11:33:37;999.31;;;6.78;72.05
48810;BME280;40070;47.322;18.784;2022-11-20T11:36:01;999.26;;;7.03;71.37
48810;BME280;40070;47.322;18.784;2022-11-20T11:37:54;999.17;;;7.13;71.30